Time;durP1;ratioP1;P1;durP2;ratioP2;P2;SDS_P1;SDS_P2;PMS_P1;PMS_P2;Temp;Humidity;BMP_temperature;BMP_pressure;BME280_temperature;BME280_humidity;BME280_pressure;Samples;Min_cycle;Max_cycle;Signal;HPM_P1;HPM_P2
2022/06/14 00:03:04;;;;;;;;;;;;;;;21.37;30.26;97550.63;4975445;28;1131;-78
2022/06/14 00:05:29;;;;;;;;;;;;;;;21.36;30.19;97534.88;4975189;28;989;-78
2022/06/14 00:07:55;;;;;;;;;;;;;;;21.75;30.59;97544.06;4974977;28;966;-78
2022/06/14 00:10:21;;;;;;;;;;;;;;;21.84;30.24;97542.13;4975082;28;1906;-77
2022/06/14 00:12:46;;;;;;;;;;;;;;;22.18;29.90;97542.63;4974805;28;878;-78
2022/06/14 00:15:12;;;;;;;;;;;;;;;21.87;30.03;97540.44;4993902;28;1049;-78
2022/06/14 00:17:37;;;;;;;;;;;;;;;21.54;30.46;97539.94;4994784;28;1042;-78
2022/06/14 00:20:03;;;;;;;;;;;;;;;21.57;30.25;97551.16;4994069;28;1014;-78
2022/06/14 00:22:28;;;;;;;;;;;;;;;21.41;30.55;97542.00;4994589;28;896;-77
2022/06/14 00:24:54;;;;;;;;;;;;;;;21.30;30.71;97548.81;4994021;28;1023;-77
2022/06/14 00:27:20;;;;;;;;;;;;;;;21.30;30.55;97542.38;5030170;28;913;-78
2022/06/14 00:29:45;;;;;;;;;;;;;;;21.31;30.65;97541.91;5036066;28;1985;-77
2022/06/14 00:32:11;;;;;;;;;;;;;;;21.29;30.81;97541.53;5036161;28;947;-77
2022/06/14 00:34:36;;;;;;;;;;;;;;;21.46;30.22;97544.28;5035718;28;865;-78
2022/06/14 00:37:02;;;;;;;;;;;;;;;21.58;30.82;97541.41;5035341;28;936;-78
2022/06/14 00:39:28;;;;;;;;;;;;;;;21.99;30.42;97539.59;5035288;28;1232;-78
2022/06/14 00:41:54;;;;;;;;;;;;;;;22.09;30.27;97535.59;5035608;28;1073;-77
2022/06/14 00:44:26;;;;;;;;;;;;;;;22.12;30.02;97539.56;5035662;28;883;-78
2022/06/14 00:47:05;;;;;;;;;;;;;;;21.65;30.79;97543.19;5017904;28;964;-77
2022/06/14 00:50:00;;;;;;;;;;;;;;;21.36;31.11;97542.59;5013386;28;1906;-78
2022/06/14 00:52:31;;;;;;;;;;;;;;;21.37;30.82;97535.66;4936097;29;1024;-77
2022/06/14 00:55:02;;;;;;;;;;;;;;;21.45;30.68;97534.16;4936142;29;946;-77
2022/06/14 00:57:29;;;;;;;;;;;;;;;21.43;30.73;97533.84;4937223;29;1067;-77
2022/06/14 00:59:56;;;;;;;;;;;;;;;21.40;30.67;97531.91;4939278;29;944;-78
2022/06/14 01:02:23;;;;;;;;;;;;;;;21.35;30.72;97538.16;4923226;29;935;-77
2022/06/14 01:04:49;;;;;;;;;;;;;;;21.44;30.57;97530.56;4939220;29;1129;-78
2022/06/14 01:07:18;;;;;;;;;;;;;;;21.56;31.07;97537.47;4955460;29;962;-77
2022/06/14 01:09:50;;;;;;;;;;;;;;;21.76;31.12;97540.81;4955369;29;1973;-78
2022/06/14 01:12:19;;;;;;;;;;;;;;;22.07;30.18;97537.28;4938910;29;1021;-78
2022/06/14 01:14:50;;;;;;;;;;;;;;;22.12;30.13;97538.78;4939091;29;1064;-78
2022/06/14 01:17:15;;;;;;;;;;;;;;;21.67;30.82;97531.44;4938880;29;1023;-78
2022/06/14 01:19:41;;;;;;;;;;;;;;;21.56;31.02;97534.63;4957948;28;1056;-77
2022/06/14 01:22:06;;;;;;;;;;;;;;;21.43;30.77;97533.84;4974498;28;1012;-77
2022/06/14 01:24:31;;;;;;;;;;;;;;;21.39;30.78;97528.28;4974270;28;999;-77
2022/06/14 01:26:57;;;;;;;;;;;;;;;21.31;30.82;97527.75;4974171;28;1027;-78
2022/06/14 01:29:23;;;;;;;;;;;;;;;21.32;30.86;97528.53;5013324;28;1965;-77
2022/06/14 01:31:49;;;;;;;;;;;;;;;21.33;30.86;97536.56;5013032;28;1041;-78
2022/06/14 01:34:14;;;;;;;;;;;;;;;21.51;30.84;97532.38;4996598;28;1070;-77
2022/06/14 01:36:39;;;;;;;;;;;;;;;21.94;30.76;97533.72;4996876;28;973;-77
2022/06/14 01:39:06;;;;;;;;;;;;;;;22.25;30.12;97537.47;5013376;28;964;-78
2022/06/14 01:41:50;;;;;;;;;;;;;;;22.24;29.85;97537.94;5013026;28;933;-78
2022/06/14 01:44:21;;;;;;;;;;;;;;;21.78;30.56;97543.97;5012898;28;913;-77
2022/06/14 01:47:12;;;;;;;;;;;;;;;21.66;30.80;97543.97;5012789;28;1346;-77
2022/06/14 01:52:27;;;;;;;;;;;;;;;21.33;31.02;97550.72;4958590;29;947;-77
2022/06/14 01:54:58;;;;;;;;;;;;;;;21.49;30.69;97537.69;4958488;29;947;-77
2022/06/14 01:57:39;;;;;;;;;;;;;;;21.52;30.81;97542.44;4958580;29;1204;-77
2022/06/14 02:00:12;;;;;;;;;;;;;;;21.92;30.67;97544.72;4958611;29;921;-77
2022/06/14 02:02:42;;;;;;;;;;;;;;;22.16;30.32;97551.56;4950216;28;971;-77
2022/06/14 02:05:31;;;;;;;;;;;;;;;21.78;30.58;97543.19;4961738;28;1001;-78
2022/06/14 02:08:01;;;;;;;;;;;;;;;21.66;30.65;97541.97;4977407;28;1109;-78
2022/06/14 02:10:32;;;;;;;;;;;;;;;21.53;30.74;97544.03;4961176;28;1918;-78
2022/06/14 02:13:20;;;;;;;;;;;;;;;21.49;30.64;97540.50;4977127;28;1038;-78
2022/06/14 02:15:47;;;;;;;;;;;;;;;21.56;30.50;97543.13;4961493;28;988;-78
2022/06/14 02:18:13;;;;;;;;;;;;;;;21.49;30.50;97543.34;4961250;28;956;-78
2022/06/14 02:20:57;;;;;;;;;;;;;;;21.27;30.84;97546.84;4903888;29;1015;-78
2022/06/14 02:23:22;;;;;;;;;;;;;;;21.25;30.75;97552.19;4919418;29;982;-77
2022/06/14 02:26:06;;;;;;;;;;;;;;;21.16;30.79;97554.91;4931580;28;1156;-77
2022/06/14 02:28:33;;;;;;;;;;;;;;;21.68;30.72;97553.63;4976906;28;968;-77
2022/06/14 02:31:00;;;;;;;;;;;;;;;21.92;30.37;97558.91;4960712;28;1980;-78
2022/06/14 02:33:49;;;;;;;;;;;;;;;22.16;29.94;97560.06;4960740;28;1080;-77
2022/06/14 02:36:21;;;;;;;;;;;;;;;21.96;29.79;97551.81;4918877;29;956;-77
2022/06/14 02:38:52;;;;;;;;;;;;;;;21.63;30.28;97556.25;4903083;29;1325;-77
2022/06/14 02:41:20;;;;;;;;;;;;;;;21.50;30.59;97556.25;4919254;29;965;-77
2022/06/14 02:43:47;;;;;;;;;;;;;;;21.34;30.59;97554.34;4918637;29;1002;-77
2022/06/14 02:46:18;;;;;;;;;;;;;;;21.36;30.67;97562.41;4903055;29;966;-77
2022/06/14 02:48:46;;;;;;;;;;;;;;;21.39;30.43;97564.31;4903111;29;1144;-78
2022/06/14 02:51:14;;;;;;;;;;;;;;;21.38;30.76;97562.72;4918726;29;1984;-78
2022/06/14 02:53:43;;;;;;;;;;;;;;;21.61;30.75;97562.38;4918638;29;966;-78
2022/06/14 02:56:11;;;;;;;;;;;;;;;21.98;30.38;97562.72;4903230;29;890;-79
2022/06/14 02:58:42;;;;;;;;;;;;;;;22.30;29.58;97568.06;4932326;29;1397;-78
2022/06/14 03:01:15;;;;;;;;;;;;;;;22.06;29.86;97569.69;4937335;29;955;-78
2022/06/14 03:03:44;;;;;;;;;;;;;;;22.45;30.89;97573.22;4937961;29;991;-78
2022/06/14 03:06:24;;;;;;;;;;;;;;;22.26;31.97;97569.44;4918822;29;867;-78
2022/06/14 03:08:57;;;;;;;;;;;;;;;21.75;32.60;97567.53;4918895;29;1973;-78
2022/06/14 03:11:31;;;;;;;;;;;;;;;21.79;32.26;97565.38;4918924;29;1070;-78
2022/06/14 03:14:01;;;;;;;;;;;;;;;21.72;32.35;97573.31;4951783;28;1045;-78
2022/06/14 03:16:29;;;;;;;;;;;;;;;21.81;32.10;97565.72;4960044;28;914;-78
2022/06/14 03:18:59;;;;;;;;;;;;;;;21.64;32.02;97569.94;4976526;28;914;-78
2022/06/14 03:21:46;;;;;;;;;;;;;;;21.62;31.87;97566.78;4956106;29;976;-78
2022/06/14 03:24:24;;;;;;;;;;;;;;;21.49;32.27;97566.78;4936852;29;1518;-78
2022/06/14 03:29:52;;;;;;;;;;;;;;;22.34;33.07;97565.91;5118941;23;1902;-76
2022/06/14 03:35:10;;;;;;;;;;;;;;;23.02;34.55;97568.25;5025754;28;1527;-76
2022/06/14 03:37:35;;;;;;;;;;;;;;;22.69;35.89;97582.84;4995703;28;1418;-77
2022/06/14 03:40:02;;;;;;;;;;;;;;;22.31;36.05;97578.13;4979922;28;1006;-77
2022/06/14 03:42:28;;;;;;;;;;;;;;;22.23;35.22;97576.81;4996126;28;947;-76
2022/06/14 03:44:53;;;;;;;;;;;;;;;21.99;35.43;97575.63;4996163;28;963;-76
2022/06/14 03:47:23;;;;;;;;;;;;;;;21.94;34.96;97579.84;4996490;28;1153;-76
2022/06/14 03:49:53;;;;;;;;;;;;;;;22.03;34.15;97581.97;4995891;28;1981;-77
2022/06/14 03:52:37;;;;;;;;;;;;;;;21.95;33.83;97580.63;4995860;28;923;-76
2022/06/14 03:55:25;;;;;;;;;;;;;;;21.94;33.53;97584.72;4995762;28;962;-77
2022/06/14 03:58:20;;;;;;;;;;;;;;;21.72;33.79;97567.66;4976226;28;950;-76
2022/06/14 04:00:46;;;;;;;;;;;;;;;21.70;33.27;97573.75;4900090;29;934;-76
2022/06/14 04:03:25;;;;;;;;;;;;;;;21.80;33.03;97569.78;4899721;29;999;-77
2022/06/14 04:06:00;;;;;;;;;;;;;;;21.74;32.83;97577.28;4899728;29;1045;-77
2022/06/14 04:08:44;;;;;;;;;;;;;;;21.60;32.88;97572.09;4900357;29;1008;-77
2022/06/14 04:11:29;;;;;;;;;;;;;;;21.78;32.40;97575.13;4899575;29;1993;-77
2022/06/14 04:13:59;;;;;;;;;;;;;;;21.78;32.59;97582.81;4898592;29;1102;-77
2022/06/14 04:16:26;;;;;;;;;;;;;;;21.66;32.34;97586.44;4899791;29;922;-77
2022/06/14 04:18:54;;;;;;;;;;;;;;;21.60;32.65;97583.41;4899440;29;939;-77
2022/06/14 04:21:34;;;;;;;;;;;;;;;21.72;32.02;97585.44;4899497;29;1172;-76
2022/06/14 04:24:18;;;;;;;;;;;;;;;21.50;32.33;97595.88;4899513;29;977;-77
2022/06/14 04:27:09;;;;;;;;;;;;;;;21.75;32.00;97593.00;4899527;29;1026;-76
2022/06/14 04:29:50;;;;;;;;;;;;;;;21.51;32.58;97603.13;4861833;29;1903;-77
2022/06/14 04:32:20;;;;;;;;;;;;;;;21.55;32.32;97592.47;4862444;29;1099;-77
2022/06/14 04:34:47;;;;;;;;;;;;;;;21.64;32.48;97605.94;4861698;29;1291;-76
2022/06/14 04:37:18;;;;;;;;;;;;;;;21.50;32.58;97612.84;4894351;29;956;-77
2022/06/14 04:39:47;;;;;;;;;;;;;;;21.65;32.09;97607.53;4921280;29;998;-76
2022/06/14 04:42:38;;;;;;;;;;;;;;;21.81;31.90;97610.22;4921222;29;937;-77
2022/06/14 04:45:10;;;;;;;;;;;;;;;21.72;32.43;97612.97;4898833;29;1144;-76
2022/06/14 04:47:39;;;;;;;;;;;;;;;21.63;32.36;97615.69;4898999;29;977;-76
2022/06/14 04:50:06;;;;;;;;;;;;;;;21.65;32.51;97619.63;4899092;29;1911;-76
2022/06/14 04:52:36;;;;;;;;;;;;;;;21.60;32.49;97628.69;4899172;29;1214;-76
2022/06/14 04:55:05;;;;;;;;;;;;;;;21.62;32.54;97626.22;4880295;29;983;-77
2022/06/14 04:57:32;;;;;;;;;;;;;;;21.55;32.55;97626.44;4880375;29;1082;-76
2022/06/14 05:00:16;;;;;;;;;;;;;;;21.57;32.22;97623.97;4880284;29;1461;-77
2022/06/14 05:02:44;;;;;;;;;;;;;;;21.60;32.47;97617.38;4880080;29;1672;-76
2022/06/14 05:05:10;;;;;;;;;;;;;;;21.52;32.34;97621.72;4880065;29;941;-76
2022/06/14 05:07:43;;;;;;;;;;;;;;;21.48;32.59;97627.47;4940073;29;1017;-76
2022/06/14 05:10:25;;;;;;;;;;;;;;;21.45;32.40;97633.25;4940082;29;1980;-77
2022/06/14 05:13:02;;;;;;;;;;;;;;;21.49;32.32;97622.59;4940025;29;1049;-76
2022/06/14 05:15:29;;;;;;;;;;;;;;;21.68;32.14;97641.41;4939708;29;1061;-76
2022/06/14 05:18:01;;;;;;;;;;;;;;;21.66;32.17;97638.25;4940427;29;1092;-76
2022/06/14 05:20:35;;;;;;;;;;;;;;;21.50;32.51;97641.97;4940210;29;893;-77
2022/06/14 05:23:08;;;;;;;;;;;;;;;21.54;32.21;97641.84;4991345;28;964;-77
2022/06/14 05:25:46;;;;;;;;;;;;;;;21.58;32.35;97646.16;4997723;28;1008;-77
2022/06/14 05:28:12;;;;;;;;;;;;;;;21.61;32.27;97646.50;5039118;28;867;-76
2022/06/14 05:30:40;;;;;;;;;;;;;;;21.56;32.35;97645.03;5040269;28;1985;-76
2022/06/14 05:33:11;;;;;;;;;;;;;;;21.61;32.04;97647.31;5039317;28;1208;-76
2022/06/14 05:35:49;;;;;;;;;;;;;;;21.72;32.14;97647.75;5040016;28;982;-77
2022/06/14 05:38:19;;;;;;;;;;;;;;;21.75;31.63;97658.13;5040025;28;966;-76
2022/06/14 05:40:45;;;;;;;;;;;;;;;21.79;31.67;97656.00;4998184;28;1122;-76
2022/06/14 05:43:27;;;;;;;;;;;;;;;21.67;31.86;97656.81;4998378;28;903;-77
2022/06/14 05:46:06;;;;;;;;;;;;;;;21.61;32.04;97655.78;4998176;28;1014;-76
2022/06/14 05:48:33;;;;;;;;;;;;;;;21.60;32.10;97657.00;4998104;28;998;-77
2022/06/14 05:50:59;;;;;;;;;;;;;;;21.68;31.96;97663.25;4998116;28;1995;-77
2022/06/14 05:53:27;;;;;;;;;;;;;;;21.57;32.15;97655.09;4998043;28;912;-76
2022/06/14 05:55:57;;;;;;;;;;;;;;;21.43;32.54;97662.00;4978196;28;1250;-77
2022/06/14 05:58:24;;;;;;;;;;;;;;;21.75;32.14;97660.97;4977908;28;1297;-76
2022/06/14 06:01:11;;;;;;;;;;;;;;;21.56;32.47;97657.16;4975656;28;1235;-77
2022/06/14 06:03:48;;;;;;;;;;;;;;;21.71;31.98;97663.16;4912505;29;1346;-77
2022/06/14 06:06:28;;;;;;;;;;;;;;;21.57;32.44;97660.78;4894884;29;1259;-77
2022/06/14 06:08:55;;;;;;;;;;;;;;;21.60;32.39;97659.84;4887946;29;1253;-76
2022/06/14 06:11:40;;;;;;;;;;;;;;;21.45;32.47;97655.88;4875052;29;1983;-76
2022/06/14 06:14:06;;;;;;;;;;;;;;;21.51;32.35;97659.75;4882871;29;1911;-77
2022/06/14 06:19:07;;;;;;;;;;;;;;;21.58;32.39;97671.63;4901253;29;1063;-77
2022/06/14 06:21:33;;;;;;;;;;;;;;;21.60;32.46;97662.69;4901673;29;939;-76
2022/06/14 06:24:01;;;;;;;;;;;;;;;21.73;32.32;97677.63;4901636;29;1034;-76
2022/06/14 06:26:28;;;;;;;;;;;;;;;21.55;32.72;97671.72;4895661;29;953;-77
2022/06/14 06:28:55;;;;;;;;;;;;;;;21.50;32.86;97670.28;4882937;29;1056;-77
2022/06/14 06:31:22;;;;;;;;;;;;;;;21.56;33.03;97668.47;4863912;29;1983;-76
2022/06/14 06:33:48;;;;;;;;;;;;;;;21.51;32.89;97676.75;4848445;29;1254;-77
2022/06/14 06:36:23;;;;;;;;;;;;;;;21.63;32.73;97673.09;4847792;29;993;-76
2022/06/14 06:38:54;;;;;;;;;;;;;;;21.80;32.39;97671.72;4848900;29;915;-76
2022/06/14 06:44:09;;;;;;;;;;;;;;;21.64;32.89;97669.03;4903014;29;962;-77
2022/06/14 06:46:35;;;;;;;;;;;;;;;21.59;33.02;97678.09;4882287;29;958;-76
2022/06/14 06:49:01;;;;;;;;;;;;;;;21.76;32.58;97670.25;4882296;29;1984;-76
2022/06/14 06:51:34;;;;;;;;;;;;;;;21.79;32.67;97677.84;4899815;29;1374;-76
2022/06/14 06:54:10;;;;;;;;;;;;;;;21.76;32.57;97681.59;4920073;29;1048;-77
2022/06/14 06:56:37;;;;;;;;;;;;;;;21.72;32.62;97676.06;4919661;29;1089;-77
2022/06/14 06:59:03;;;;;;;;;;;;;;;21.73;32.67;97676.84;4904023;29;939;-76
2022/06/14 07:01:28;;;;;;;;;;;;;;;21.67;32.90;97678.66;4925289;29;1332;-76
2022/06/14 07:03:56;;;;;;;;;;;;;;;21.64;33.07;97679.56;4957902;29;927;-77
2022/06/14 07:06:24;;;;;;;;;;;;;;;21.59;33.12;97683.75;4957902;29;1027;-76
2022/06/14 07:08:52;;;;;;;;;;;;;;;21.54;33.31;97687.16;4958237;29;1002;-77
2022/06/14 07:11:19;;;;;;;;;;;;;;;21.70;32.56;97689.84;4958002;29;1970;-76
2022/06/14 07:13:47;;;;;;;;;;;;;;;21.64;32.59;97685.22;4957977;29;1059;-77
2022/06/14 07:16:21;;;;;;;;;;;;;;;21.65;32.68;97690.44;4957638;29;1051;-76
2022/06/14 07:19:10;;;;;;;;;;;;;;;21.61;32.79;97698.25;4941647;29;1012;-76
2022/06/14 07:21:36;;;;;;;;;;;;;;;21.73;32.53;97691.78;4938268;29;1060;-76
2022/06/14 07:24:13;;;;;;;;;;;;;;;21.66;32.70;97694.88;4948049;29;1027;-76
2022/06/14 07:26:56;;;;;;;;;;;;;;;21.58;32.93;97701.97;4959616;28;940;-76
2022/06/14 07:29:25;;;;;;;;;;;;;;;21.69;33.01;97702.44;4960756;28;1969;-76
2022/06/14 07:31:50;;;;;;;;;;;;;;;21.72;32.83;97706.41;4976751;28;988;-76
2022/06/14 07:34:16;;;;;;;;;;;;;;;21.64;32.79;97713.53;4976770;28;1070;-77
2022/06/14 07:37:00;;;;;;;;;;;;;;;21.75;32.58;97702.66;4976662;28;1033;-77
2022/06/14 07:39:36;;;;;;;;;;;;;;;21.58;33.23;97721.81;4976589;28;927;-76
2022/06/14 07:42:05;;;;;;;;;;;;;;;21.63;32.85;97711.97;4960519;28;990;-77
2022/06/14 07:44:30;;;;;;;;;;;;;;;21.72;32.82;97701.53;4938158;29;884;-76
2022/06/14 07:47:00;;;;;;;;;;;;;;;21.78;32.98;97713.88;4944400;28;1248;-77
2022/06/14 07:49:40;;;;;;;;;;;;;;;21.70;32.81;97723.84;4956552;29;1910;-77
2022/06/14 07:52:10;;;;;;;;;;;;;;;21.74;33.15;97718.88;4956447;29;1349;-77
2022/06/14 07:54:41;;;;;;;;;;;;;;;21.75;33.07;97714.00;4956996;29;1393;-77
2022/06/14 07:57:36;;;;;;;;;;;;;;;21.75;33.04;97714.78;4945367;29;1353;-77
2022/06/14 08:01:07;;;;;;;;;;;;;;;21.70;32.96;97723.84;4918594;29;1295;-77
2022/06/14 08:02:47;;;;;;;;;;;;;;;21.71;33.15;97714.13;4918859;29;1077;-76
2022/06/14 08:05:16;;;;;;;;;;;;;;;21.64;33.29;97714.34;4903184;29;1029;-77
2022/06/14 08:07:41;;;;;;;;;;;;;;;21.73;33.28;97711.63;4899804;29;981;-77
2022/06/14 08:10:23;;;;;;;;;;;;;;;21.81;33.02;97715.81;4899301;29;1980;-77
2022/06/14 08:12:58;;;;;;;;;;;;;;;21.74;33.16;97716.03;4880720;29;988;-76
2022/06/14 08:15:25;;;;;;;;;;;;;;;21.67;33.72;97719.09;4865678;29;979;-77
2022/06/14 08:17:54;;;;;;;;;;;;;;;21.78;33.57;97713.88;4861761;29;1014;-77
2022/06/14 08:20:22;;;;;;;;;;;;;;;21.85;33.09;97712.84;4825272;29;913;-77
2022/06/14 08:22:49;;;;;;;;;;;;;;;21.85;33.05;97713.66;4773626;30;1010;-77
2022/06/14 08:25:16;;;;;;;;;;;;;;;21.90;33.10;97714.34;4753421;30;997;-76
2022/06/14 08:27:44;;;;;;;;;;;;;;;21.83;33.57;97716.16;4759403;30;1083;-77
2022/06/14 08:30:11;;;;;;;;;;;;;;;21.68;33.93;97720.69;4770761;30;1996;-77
2022/06/14 08:32:48;;;;;;;;;;;;;;;21.85;33.29;97713.66;4771159;30;1287;-77
2022/06/14 08:35:20;;;;;;;;;;;;;;;21.93;33.21;97719.09;4732478;30;1221;-77
2022/06/14 08:37:50;;;;;;;;;;;;;;;21.77;33.71;97723.63;4787267;30;1009;-77
2022/06/14 08:40:34;;;;;;;;;;;;;;;21.94;33.29;97715.00;4770894;30;999;-77
2022/06/14 08:43:04;;;;;;;;;;;;;;;21.83;33.86;97713.31;4776518;29;1126;-77
2022/06/14 08:45:46;;;;;;;;;;;;;;;21.70;33.71;97718.19;4806863;29;1104;-77
2022/06/14 08:48:31;;;;;;;;;;;;;;;21.68;33.85;97719.88;4828976;29;970;-77
2022/06/14 08:51:06;;;;;;;;;;;;;;;21.69;33.99;97715.81;4831279;29;1919;-77
2022/06/14 08:53:36;;;;;;;;;;;;;;;21.71;33.97;97722.63;4828201;29;1023;-77
2022/06/14 08:56:07;;;;;;;;;;;;;;;21.69;34.00;97721.47;4910593;29;1143;-77
2022/06/14 08:58:38;;;;;;;;;;;;;;;21.82;34.01;97720.25;4936102;29;1001;-76
2022/06/14 09:01:10;;;;;;;;;;;;;;;21.89;33.54;97735.41;4936871;29;1625;-77
2022/06/14 09:03:55;;;;;;;;;;;;;;;21.82;33.77;97740.06;4936670;29;936;-76
2022/06/14 09:06:32;;;;;;;;;;;;;;;21.66;33.95;97734.50;4936524;29;1022;-77
2022/06/14 09:09:21;;;;;;;;;;;;;;;21.65;34.12;97738.56;4936602;29;1154;-76
2022/06/14 09:11:59;;;;;;;;;;;;;;;21.61;33.96;97737.91;4912884;29;989;-77
2022/06/14 09:14:33;;;;;;;;;;;;;;;21.87;33.76;97740.75;4917629;29;1010;-77
2022/06/14 09:17:21;;;;;;;;;;;;;;;21.81;33.46;97740.50;4917811;29;1039;-77
2022/06/14 09:19:49;;;;;;;;;;;;;;;21.78;33.87;97745.03;4894180;29;1055;-76
2022/06/14 09:22:25;;;;;;;;;;;;;;;21.93;33.62;97738.94;4898923;29;1102;-77
2022/06/14 09:25:08;;;;;;;;;;;;;;;21.85;33.71;97741.97;4880124;29;1080;-77
2022/06/14 09:27:51;;;;;;;;;;;;;;;21.73;33.82;97745.59;4880011;29;962;-77
2022/06/14 09:30:35;;;;;;;;;;;;;;;21.77;33.76;97746.28;4894753;29;1975;-77
2022/06/14 09:33:13;;;;;;;;;;;;;;;21.99;33.19;97748.44;4898749;29;1392;-76
2022/06/14 09:35:51;;;;;;;;;;;;;;;21.82;33.60;97748.56;4898735;29;1245;-77
2022/06/14 09:38:19;;;;;;;;;;;;;;;21.87;33.57;97743.56;4913068;29;1297;-77
2022/06/14 09:41:02;;;;;;;;;;;;;;;21.80;33.54;97745.38;4936153;29;1424;-76
2022/06/14 09:43:35;;;;;;;;;;;;;;;21.74;33.61;97752.84;4936088;29;1338;-76
2022/06/14 09:46:03;;;;;;;;;;;;;;;21.83;33.90;97747.31;4917518;29;989;-77
2022/06/14 09:48:37;;;;;;;;;;;;;;;21.72;33.91;97749.69;4917086;29;1098;-76
2022/06/14 09:51:15;;;;;;;;;;;;;;;21.73;34.00;97754.09;4915056;29;1910;-76
2022/06/14 09:53:49;;;;;;;;;;;;;;;21.75;33.98;97754.44;4914884;29;1220;-76
2022/06/14 09:56:18;;;;;;;;;;;;;;;21.72;33.63;97744.03;4919769;29;1365;-76
2022/06/14 09:58:44;;;;;;;;;;;;;;;21.71;33.57;97744.44;4929566;29;1283;-76
2022/06/14 10:01:31;;;;;;;;;;;;;;;21.91;33.33;97738.56;4947199;29;1483;-76
2022/06/14 10:04:15;;;;;;;;;;;;;;;21.96;33.01;97738.00;4938316;29;1290;-76
2022/06/14 10:06:40;;;;;;;;;;;;;;;22.03;33.14;97740.63;4925500;29;1132;-76
2022/06/14 10:09:21;;;;;;;;;;;;;;;21.92;33.32;97740.19;4926112;29;1254;-76
2022/06/14 10:11:58;;;;;;;;;;;;;;;21.96;33.20;97735.16;4927942;29;1250;-76
2022/06/14 10:14:24;;;;;;;;;;;;;;;21.79;33.33;97738.13;4922823;29;2193;-76
2022/06/14 10:17:08;;;;;;;;;;;;;;;21.85;33.46;97736.31;4936906;29;999;-76
2022/06/14 10:19:52;;;;;;;;;;;;;;;21.87;33.16;97743.56;4965471;28;1405;-75
2022/06/14 10:22:23;;;;;;;;;;;;;;;21.93;32.89;97730.44;4969348;28;1356;-76
2022/06/14 10:24:49;;;;;;;;;;;;;;;21.74;33.54;97735.84;4963893;28;1487;-76
2022/06/14 10:30:10;;;;;;;;;;;;;;;21.98;33.15;97732.69;4970879;28;1910;-76
2022/06/14 10:32:44;;;;;;;;;;;;;;;21.89;33.14;97729.75;4968274;28;1269;-76
2022/06/14 10:35:14;;;;;;;;;;;;;;;21.92;33.01;97734.50;5006313;28;1308;-76
2022/06/14 10:37:58;;;;;;;;;;;;;;;21.78;33.34;97730.88;5011333;28;1321;-76
2022/06/14 10:40:29;;;;;;;;;;;;;;;21.79;33.39;97726.78;5038391;28;1213;-77
2022/06/14 10:43:13;;;;;;;;;;;;;;;21.84;33.03;97723.41;5038651;28;1193;-77
2022/06/14 10:45:40;;;;;;;;;;;;;;;21.81;32.84;97718.66;5037675;28;1155;-76
2022/06/14 10:48:25;;;;;;;;;;;;;;;21.88;32.81;97731.00;5037561;28;1029;-76
2022/06/14 10:51:08;;;;;;;;;;;;;;;21.93;32.77;97713.44;5038401;28;1980;-76
2022/06/14 10:53:44;;;;;;;;;;;;;;;21.68;33.28;97709.34;5038503;28;956;-77
2022/06/14 10:56:13;;;;;;;;;;;;;;;21.58;33.64;97710.47;5037412;28;941;-76
2022/06/14 10:58:52;;;;;;;;;;;;;;;21.69;33.16;97699.59;5038668;28;1082;-76
2022/06/14 11:01:37;;;;;;;;;;;;;;;21.77;33.06;97689.66;4997286;28;880;-76
2022/06/14 11:04:08;;;;;;;;;;;;;;;21.75;33.29;97697.78;4996934;28;931;-76
2022/06/14 11:06:46;;;;;;;;;;;;;;;21.90;32.86;97697.34;4996842;28;926;-76
2022/06/14 11:09:14;;;;;;;;;;;;;;;21.79;32.84;97704.13;4996714;28;1906;-77
2022/06/14 11:11:48;;;;;;;;;;;;;;;21.85;32.56;97696.66;4996731;28;1056;-77
2022/06/14 11:14:20;;;;;;;;;;;;;;;21.75;32.67;97697.00;4977465;28;963;-77
2022/06/14 11:17:00;;;;;;;;;;;;;;;21.75;32.67;97697.78;4976982;28;973;-76
2022/06/14 11:19:29;;;;;;;;;;;;;;;21.75;32.51;97686.47;4960923;28;1073;-76
2022/06/14 11:21:55;;;;;;;;;;;;;;;21.73;32.76;97680.47;4976831;28;991;-77
2022/06/14 11:24:23;;;;;;;;;;;;;;;21.79;32.46;97687.16;4977015;28;1000;-77
2022/06/14 11:26:49;;;;;;;;;;;;;;;21.71;32.41;97676.50;4977080;28;896;-76
2022/06/14 11:29:34;;;;;;;;;;;;;;;21.73;32.31;97683.31;4976620;28;1985;-76
2022/06/14 11:32:08;;;;;;;;;;;;;;;21.81;32.33;97679.00;4983914;28;1090;-77
2022/06/14 11:34:36;;;;;;;;;;;;;;;21.78;32.36;97668.56;4996574;28;1196;-76
2022/06/14 11:37:07;;;;;;;;;;;;;;;21.74;32.65;97659.41;4996188;28;1057;-76
2022/06/14 11:39:35;;;;;;;;;;;;;;;21.71;32.56;97657.50;4995679;28;1087;-77
2022/06/14 11:42:05;;;;;;;;;;;;;;;21.91;32.28;97668.53;4980229;28;906;-76
2022/06/14 11:44:34;;;;;;;;;;;;;;;21.79;32.28;97653.16;4989220;28;1008;-77
2022/06/14 11:47:11;;;;;;;;;;;;;;;21.87;32.21;97655.78;5036625;28;949;-77
2022/06/14 11:49:46;;;;;;;;;;;;;;;21.76;32.40;97642.75;5036500;28;1969;-77
2022/06/14 11:52:30;;;;;;;;;;;;;;;21.63;32.71;97650.47;5037610;28;959;-77
2022/06/14 11:55:05;;;;;;;;;;;;;;;21.75;32.28;97646.03;5036119;28;1061;-76
2022/06/14 11:57:32;;;;;;;;;;;;;;;21.87;32.01;97647.28;5037705;28;1001;-77
2022/06/14 11:59:57;;;;;;;;;;;;;;;21.88;31.91;97649.66;4995796;28;1031;-76
2022/06/14 12:02:25;;;;;;;;;;;;;;;21.78;32.00;97656.47;4995561;28;989;-76
2022/06/14 12:05:06;;;;;;;;;;;;;;;21.64;32.30;97652.03;4995671;28;1079;-76
2022/06/14 12:07:41;;;;;;;;;;;;;;;21.72;32.47;97659.06;4995507;28;1049;-76
2022/06/14 12:10:26;;;;;;;;;;;;;;;21.78;32.03;97657.25;4937389;29;1983;-76
2022/06/14 12:12:54;;;;;;;;;;;;;;;21.79;32.30;97667.31;4937531;29;928;-77
2022/06/14 12:15:27;;;;;;;;;;;;;;;21.76;32.24;97665.41;4918422;29;979;-76
2022/06/14 12:17:54;;;;;;;;;;;;;;;21.81;32.27;97669.69;4902706;29;1109;-76
2022/06/14 12:20:25;;;;;;;;;;;;;;;21.88;32.08;97677.19;4918830;29;962;-77
2022/06/14 12:22:51;;;;;;;;;;;;;;;21.75;32.27;97680.78;4880701;29;1055;-76
2022/06/14 12:28:01;;;;;;;;;;;;;;;21.89;32.03;97693.72;4880724;29;1018;-77
2022/06/14 12:30:27;;;;;;;;;;;;;;;21.79;31.99;97684.31;4886167;29;1918;-77
2022/06/14 12:32:54;;;;;;;;;;;;;;;21.67;32.45;97678.66;4899219;29;1072;-76
2022/06/14 12:35:21;;;;;;;;;;;;;;;21.55;32.47;97681.06;4898851;29;970;-76
2022/06/14 12:37:51;;;;;;;;;;;;;;;21.78;32.16;97685.56;4899262;29;922;-77
2022/06/14 12:40:19;;;;;;;;;;;;;;;21.74;32.07;97684.88;4908615;29;1021;-77
2022/06/14 12:42:45;;;;;;;;;;;;;;;21.70;32.22;97677.75;4956206;29;1161;-77
2022/06/14 12:45:20;;;;;;;;;;;;;;;21.61;32.50;97675.63;4957407;28;1108;-77
2022/06/14 12:47:51;;;;;;;;;;;;;;;21.76;32.14;97671.06;4979091;28;963;-77
2022/06/14 12:50:23;;;;;;;;;;;;;;;21.69;32.16;97670.50;4994872;28;1914;-77
2022/06/14 12:52:50;;;;;;;;;;;;;;;21.71;32.09;97657.50;4998412;28;980;-77
2022/06/14 12:55:16;;;;;;;;;;;;;;;21.78;32.02;97659.28;5035563;28;908;-77
2022/06/14 12:57:46;;;;;;;;;;;;;;;21.85;31.96;97667.53;5036508;28;976;-76
2022/06/14 13:00:12;;;;;;;;;;;;;;;21.89;31.92;97673.09;5014442;28;1033;-77
2022/06/14 13:02:47;;;;;;;;;;;;;;;21.82;31.79;97674.13;5014508;28;918;-76
2022/06/14 13:05:16;;;;;;;;;;;;;;;21.83;32.08;97670.84;5014662;28;1136;-77
2022/06/14 13:07:51;;;;;;;;;;;;;;;21.79;32.15;97670.16;4998276;28;880;-76
2022/06/14 13:10:35;;;;;;;;;;;;;;;21.66;32.33;97666.56;4991583;28;1910;-77
2022/06/14 13:13:19;;;;;;;;;;;;;;;21.74;32.44;97656.56;4994241;28;1557;-78
2022/06/14 13:16:03;;;;;;;;;;;;;;;21.78;32.33;97654.41;4992714;28;1262;-77
2022/06/14 13:18:37;;;;;;;;;;;;;;;21.67;32.16;97648.31;4993058;28;1300;-77
2022/06/14 13:21:11;;;;;;;;;;;;;;;21.59;32.72;97644.91;4951113;29;1492;-76
2022/06/14 13:23:55;;;;;;;;;;;;;;;21.67;32.38;97639.81;4953206;29;1293;-77
2022/06/14 13:26:39;;;;;;;;;;;;;;;21.79;32.41;97641.03;4953351;29;1208;-77
2022/06/14 13:29:11;;;;;;;;;;;;;;;21.69;32.78;97631.66;4953988;29;1267;-77
2022/06/14 13:31:40;;;;;;;;;;;;;;;21.64;32.69;97640.72;4949966;28;1968;-77
2022/06/14 13:34:11;;;;;;;;;;;;;;;21.71;32.75;97640.50;4968591;28;1443;-77
2022/06/14 13:36:40;;;;;;;;;;;;;;;21.70;32.74;97627.56;4963218;28;1292;-77
2022/06/14 13:39:12;;;;;;;;;;;;;;;21.70;32.45;97638.88;4950219;28;1235;-77
2022/06/14 13:41:39;;;;;;;;;;;;;;;21.73;32.37;97638.00;4988153;28;1317;-76
2022/06/14 13:44:18;;;;;;;;;;;;;;;21.75;32.62;97646.81;5004529;28;1145;-77
2022/06/14 13:46:54;;;;;;;;;;;;;;;21.76;32.39;97653.25;5008907;28;1380;-77
2022/06/14 13:49:22;;;;;;;;;;;;;;;21.64;32.42;97663.38;4990196;28;1910;-77